sensor_id;sensor_type;location;lat;lon;timestamp;P1;durP1;ratioP1;P2;durP2;ratioP2
46815;SDS011;32787;53.316;8.670;2022-08-03T00:01:22;6.97;;;4.60;;
46815;SDS011;32787;53.316;8.670;2022-08-03T00:03:48;6.90;;;4.38;;
46815;SDS011;32787;53.316;8.670;2022-08-03T00:06:13;7.47;;;4.15;;
46815;SDS011;32787;53.316;8.670;2022-08-03T00:08:39;8.23;;;4.50;;
46815;SDS011;32787;53.316;8.670;2022-08-03T00:11:04;7.90;;;4.55;;
46815;SDS011;32787;53.316;8.670;2022-08-03T00:13:31;7.45;;;4.20;;
46815;SDS011;32787;53.316;8.670;2022-08-03T00:15:57;7.13;;;4.00;;
46815;SDS011;32787;53.316;8.670;2022-08-03T00:18:23;6.43;;;4.22;;
46815;SDS011;32787;53.316;8.670;2022-08-03T00:20:49;8.30;;;4.40;;
46815;SDS011;32787;53.316;8.670;2022-08-03T00:23:14;7.15;;;4.63;;
46815;SDS011;32787;53.316;8.670;2022-08-03T00:25:40;7.38;;;4.68;;
46815;SDS011;32787;53.316;8.670;2022-08-03T00:28:06;6.40;;;4.45;;
46815;SDS011;32787;53.316;8.670;2022-08-03T00:30:33;6.50;;;4.25;;
46815;SDS011;32787;53.316;8.670;2022-08-03T00:32:59;7.28;;;4.63;;
46815;SDS011;32787;53.316;8.670;2022-08-03T00:35:25;6.18;;;4.20;;
46815;SDS011;32787;53.316;8.670;2022-08-03T00:37:51;7.55;;;4.80;;
46815;SDS011;32787;53.316;8.670;2022-08-03T00:40:17;7.72;;;4.65;;
46815;SDS011;32787;53.316;8.670;2022-08-03T00:42:45;7.70;;;4.50;;
46815;SDS011;32787;53.316;8.670;2022-08-03T00:45:18;7.25;;;4.45;;
46815;SDS011;32787;53.316;8.670;2022-08-03T00:47:45;7.20;;;4.88;;
46815;SDS011;32787;53.316;8.670;2022-08-03T00:50:11;8.65;;;4.63;;
46815;SDS011;32787;53.316;8.670;2022-08-03T00:52:38;7.78;;;4.43;;
46815;SDS011;32787;53.316;8.670;2022-08-03T00:55:04;6.80;;;4.25;;
46815;SDS011;32787;53.316;8.670;2022-08-03T00:57:31;6.10;;;4.30;;
46815;SDS011;32787;53.316;8.670;2022-08-03T00:59:57;7.28;;;4.50;;
46815;SDS011;32787;53.316;8.670;2022-08-03T01:02:27;9.30;;;4.53;;
46815;SDS011;32787;53.316;8.670;2022-08-03T01:04:54;7.38;;;4.53;;
46815;SDS011;32787;53.316;8.670;2022-08-03T01:07:37;7.43;;;3.92;;
46815;SDS011;32787;53.316;8.670;2022-08-03T01:10:36;8.02;;;4.07;;
46815;SDS011;32787;53.316;8.670;2022-08-03T01:18:38;6.63;;;4.40;;
46815;SDS011;32787;53.316;8.670;2022-08-03T01:21:17;7.95;;;4.15;;
46815;SDS011;32787;53.316;8.670;2022-08-03T01:26:47;6.25;;;4.10;;
46815;SDS011;32787;53.316;8.670;2022-08-03T01:32:24;6.30;;;4.13;;
46815;SDS011;32787;53.316;8.670;2022-08-03T01:35:05;6.65;;;4.50;;
46815;SDS011;32787;53.316;8.670;2022-08-03T01:37:42;7.35;;;4.35;;
46815;SDS011;32787;53.316;8.670;2022-08-03T01:40:14;7.50;;;4.67;;
46815;SDS011;32787;53.316;8.670;2022-08-03T01:42:41;6.57;;;4.35;;
46815;SDS011;32787;53.316;8.670;2022-08-03T01:45:10;6.68;;;4.35;;
46815;SDS011;32787;53.316;8.670;2022-08-03T01:47:39;6.47;;;4.22;;
46815;SDS011;32787;53.316;8.670;2022-08-03T01:50:08;8.20;;;4.90;;
46815;SDS011;32787;53.316;8.670;2022-08-03T01:52:36;7.70;;;4.15;;
46815;SDS011;32787;53.316;8.670;2022-08-03T01:55:08;6.45;;;3.78;;
46815;SDS011;32787;53.316;8.670;2022-08-03T01:57:35;6.95;;;4.35;;
46815;SDS011;32787;53.316;8.670;2022-08-03T02:00:03;9.07;;;4.40;;
46815;SDS011;32787;53.316;8.670;2022-08-03T02:02:31;8.65;;;4.00;;
46815;SDS011;32787;53.316;8.670;2022-08-03T02:04:57;8.70;;;3.90;;
46815;SDS011;32787;53.316;8.670;2022-08-03T02:07:25;6.82;;;4.15;;
46815;SDS011;32787;53.316;8.670;2022-08-03T02:09:53;7.90;;;4.38;;
46815;SDS011;32787;53.316;8.670;2022-08-03T02:12:20;9.40;;;4.15;;
46815;SDS011;32787;53.316;8.670;2022-08-03T02:14:48;9.80;;;4.10;;
46815;SDS011;32787;53.316;8.670;2022-08-03T02:17:14;8.25;;;4.07;;
46815;SDS011;32787;53.316;8.670;2022-08-03T02:19:41;8.25;;;4.63;;
46815;SDS011;32787;53.316;8.670;2022-08-03T02:22:09;7.85;;;4.20;;
46815;SDS011;32787;53.316;8.670;2022-08-03T02:24:36;12.05;;;4.38;;
46815;SDS011;32787;53.316;8.670;2022-08-03T02:27:03;8.05;;;4.25;;
46815;SDS011;32787;53.316;8.670;2022-08-03T02:29:33;6.72;;;3.85;;
46815;SDS011;32787;53.316;8.670;2022-08-03T02:32:00;8.07;;;4.07;;
46815;SDS011;32787;53.316;8.670;2022-08-03T02:34:28;8.65;;;3.95;;
46815;SDS011;32787;53.316;8.670;2022-08-03T02:36:57;7.30;;;5.03;;
46815;SDS011;32787;53.316;8.670;2022-08-03T02:39:24;10.40;;;4.80;;
46815;SDS011;32787;53.316;8.670;2022-08-03T02:41:55;7.80;;;4.47;;
46815;SDS011;32787;53.316;8.670;2022-08-03T02:44:26;6.32;;;4.50;;
46815;SDS011;32787;53.316;8.670;2022-08-03T02:46:53;8.63;;;4.80;;
46815;SDS011;32787;53.316;8.670;2022-08-03T02:49:22;10.45;;;4.80;;
46815;SDS011;32787;53.316;8.670;2022-08-03T02:51:50;6.82;;;4.43;;
46815;SDS011;32787;53.316;8.670;2022-08-03T02:54:18;6.93;;;4.60;;
46815;SDS011;32787;53.316;8.670;2022-08-03T02:56:47;9.82;;;4.30;;
46815;SDS011;32787;53.316;8.670;2022-08-03T02:59:14;10.45;;;4.75;;
46815;SDS011;32787;53.316;8.670;2022-08-03T03:01:42;8.25;;;4.55;;
46815;SDS011;32787;53.316;8.670;2022-08-03T03:04:09;8.27;;;4.57;;
46815;SDS011;32787;53.316;8.670;2022-08-03T03:06:35;9.68;;;4.80;;
46815;SDS011;32787;53.316;8.670;2022-08-03T03:09:03;7.07;;;4.13;;
46815;SDS011;32787;53.316;8.670;2022-08-03T03:11:29;8.18;;;4.05;;
46815;SDS011;32787;53.316;8.670;2022-08-03T03:13:55;7.95;;;4.72;;
46815;SDS011;32787;53.316;8.670;2022-08-03T03:16:22;6.30;;;4.32;;
46815;SDS011;32787;53.316;8.670;2022-08-03T03:18:49;6.57;;;4.30;;
46815;SDS011;32787;53.316;8.670;2022-08-03T03:21:16;7.50;;;4.68;;
46815;SDS011;32787;53.316;8.670;2022-08-03T03:23:43;7.55;;;4.47;;
46815;SDS011;32787;53.316;8.670;2022-08-03T03:26:11;8.98;;;5.15;;
46815;SDS011;32787;53.316;8.670;2022-08-03T03:28:38;11.35;;;4.50;;
46815;SDS011;32787;53.316;8.670;2022-08-03T03:31:05;8.52;;;4.88;;
46815;SDS011;32787;53.316;8.670;2022-08-03T03:33:32;6.65;;;4.68;;
46815;SDS011;32787;53.316;8.670;2022-08-03T03:35:58;8.93;;;4.88;;
46815;SDS011;32787;53.316;8.670;2022-08-03T03:38:24;7.03;;;4.50;;
46815;SDS011;32787;53.316;8.670;2022-08-03T03:40:50;7.22;;;4.75;;
46815;SDS011;32787;53.316;8.670;2022-08-03T03:43:16;9.30;;;5.20;;
46815;SDS011;32787;53.316;8.670;2022-08-03T03:45:46;8.50;;;4.85;;
46815;SDS011;32787;53.316;8.670;2022-08-03T03:48:12;7.93;;;4.60;;
46815;SDS011;32787;53.316;8.670;2022-08-03T03:50:38;7.15;;;4.40;;
46815;SDS011;32787;53.316;8.670;2022-08-03T03:53:10;8.93;;;5.03;;
46815;SDS011;32787;53.316;8.670;2022-08-03T03:55:36;7.80;;;4.57;;
46815;SDS011;32787;53.316;8.670;2022-08-03T03:58:04;7.53;;;4.53;;
46815;SDS011;32787;53.316;8.670;2022-08-03T04:00:30;6.97;;;4.43;;
46815;SDS011;32787;53.316;8.670;2022-08-03T04:02:56;8.68;;;4.32;;
46815;SDS011;32787;53.316;8.670;2022-08-03T04:05:21;11.60;;;4.95;;
46815;SDS011;32787;53.316;8.670;2022-08-03T04:08:08;7.32;;;4.50;;
46815;SDS011;32787;53.316;8.670;2022-08-03T04:16:16;8.38;;;4.47;;
46815;SDS011;32787;53.316;8.670;2022-08-03T04:18:45;11.60;;;5.90;;
46815;SDS011;32787;53.316;8.670;2022-08-03T04:21:15;6.82;;;4.97;;
46815;SDS011;32787;53.316;8.670;2022-08-03T04:23:44;8.27;;;4.70;;
46815;SDS011;32787;53.316;8.670;2022-08-03T04:26:12;9.50;;;5.03;;
46815;SDS011;32787;53.316;8.670;2022-08-03T04:28:40;6.88;;;4.72;;
46815;SDS011;32787;53.316;8.670;2022-08-03T04:31:10;10.13;;;5.38;;
46815;SDS011;32787;53.316;8.670;2022-08-03T04:33:37;7.35;;;5.20;;
46815;SDS011;32787;53.316;8.670;2022-08-03T04:36:06;10.20;;;4.88;;
46815;SDS011;32787;53.316;8.670;2022-08-03T04:38:37;8.55;;;4.85;;
46815;SDS011;32787;53.316;8.670;2022-08-03T04:41:05;9.73;;;5.20;;
46815;SDS011;32787;53.316;8.670;2022-08-03T04:43:31;8.93;;;4.95;;
46815;SDS011;32787;53.316;8.670;2022-08-03T04:45:58;7.65;;;5.10;;
46815;SDS011;32787;53.316;8.670;2022-08-03T04:48:24;7.40;;;4.75;;
46815;SDS011;32787;53.316;8.670;2022-08-03T04:50:51;7.90;;;4.53;;
46815;SDS011;32787;53.316;8.670;2022-08-03T04:53:17;9.75;;;5.30;;
46815;SDS011;32787;53.316;8.670;2022-08-03T04:55:43;8.48;;;5.00;;
46815;SDS011;32787;53.316;8.670;2022-08-03T04:58:09;8.70;;;4.80;;
46815;SDS011;32787;53.316;8.670;2022-08-03T05:00:34;10.10;;;5.40;;
46815;SDS011;32787;53.316;8.670;2022-08-03T05:03:00;10.85;;;5.22;;
46815;SDS011;32787;53.316;8.670;2022-08-03T05:05:26;9.77;;;5.18;;
46815;SDS011;32787;53.316;8.670;2022-08-03T05:07:51;8.57;;;6.13;;
46815;SDS011;32787;53.316;8.670;2022-08-03T05:10:17;10.38;;;5.88;;
46815;SDS011;32787;53.316;8.670;2022-08-03T05:12:44;10.65;;;5.50;;
46815;SDS011;32787;53.316;8.670;2022-08-03T05:15:11;8.27;;;5.22;;
46815;SDS011;32787;53.316;8.670;2022-08-03T05:17:37;10.50;;;5.65;;
46815;SDS011;32787;53.316;8.670;2022-08-03T05:20:03;11.55;;;6.70;;
46815;SDS011;32787;53.316;8.670;2022-08-03T05:22:29;13.60;;;6.80;;
46815;SDS011;32787;53.316;8.670;2022-08-03T05:24:54;10.23;;;5.85;;
46815;SDS011;32787;53.316;8.670;2022-08-03T05:27:20;9.55;;;6.07;;
46815;SDS011;32787;53.316;8.670;2022-08-03T05:29:46;11.13;;;6.97;;
46815;SDS011;32787;53.316;8.670;2022-08-03T05:32:13;10.13;;;6.50;;
46815;SDS011;32787;53.316;8.670;2022-08-03T05:34:39;11.98;;;6.32;;
46815;SDS011;32787;53.316;8.670;2022-08-03T05:37:04;9.73;;;5.85;;
46815;SDS011;32787;53.316;8.670;2022-08-03T05:39:31;9.45;;;6.35;;
46815;SDS011;32787;53.316;8.670;2022-08-03T05:41:57;10.43;;;6.80;;
46815;SDS011;32787;53.316;8.670;2022-08-03T05:44:23;11.00;;;6.10;;
46815;SDS011;32787;53.316;8.670;2022-08-03T05:46:49;9.02;;;6.18;;
46815;SDS011;32787;53.316;8.670;2022-08-03T05:49:15;8.18;;;5.97;;
46815;SDS011;32787;53.316;8.670;2022-08-03T05:51:41;10.77;;;6.65;;
46815;SDS011;32787;53.316;8.670;2022-08-03T05:54:06;11.52;;;6.13;;
46815;SDS011;32787;53.316;8.670;2022-08-03T05:56:32;12.15;;;6.22;;
46815;SDS011;32787;53.316;8.670;2022-08-03T05:58:58;8.20;;;5.70;;
46815;SDS011;32787;53.316;8.670;2022-08-03T06:01:23;9.27;;;5.68;;
46815;SDS011;32787;53.316;8.670;2022-08-03T06:03:49;10.35;;;6.18;;
46815;SDS011;32787;53.316;8.670;2022-08-03T06:06:16;10.93;;;5.88;;
46815;SDS011;32787;53.316;8.670;2022-08-03T06:08:42;9.40;;;5.50;;
46815;SDS011;32787;53.316;8.670;2022-08-03T06:11:09;10.57;;;5.57;;
46815;SDS011;32787;53.316;8.670;2022-08-03T06:13:35;8.45;;;5.40;;
46815;SDS011;32787;53.316;8.670;2022-08-03T06:16:01;8.07;;;5.22;;
46815;SDS011;32787;53.316;8.670;2022-08-03T06:18:27;8.18;;;5.00;;
46815;SDS011;32787;53.316;8.670;2022-08-03T06:20:52;9.75;;;4.88;;
46815;SDS011;32787;53.316;8.670;2022-08-03T06:23:19;8.75;;;4.80;;
46815;SDS011;32787;53.316;8.670;2022-08-03T06:25:44;8.88;;;4.72;;
46815;SDS011;32787;53.316;8.670;2022-08-03T06:28:11;9.80;;;4.68;;
46815;SDS011;32787;53.316;8.670;2022-08-03T06:30:38;9.25;;;3.80;;
46815;SDS011;32787;53.316;8.670;2022-08-03T06:33:04;7.72;;;3.97;;
46815;SDS011;32787;53.316;8.670;2022-08-03T06:35:30;8.98;;;3.85;;
46815;SDS011;32787;53.316;8.670;2022-08-03T06:37:55;10.30;;;3.58;;
46815;SDS011;32787;53.316;8.670;2022-08-03T06:40:21;7.22;;;3.35;;
46815;SDS011;32787;53.316;8.670;2022-08-03T06:42:59;6.97;;;2.70;;
46815;SDS011;32787;53.316;8.670;2022-08-03T06:45:27;12.48;;;3.30;;
46815;SDS011;32787;53.316;8.670;2022-08-03T06:48:06;6.50;;;2.65;;
46815;SDS011;32787;53.316;8.670;2022-08-03T06:50:34;6.90;;;2.78;;
46815;SDS011;32787;53.316;8.670;2022-08-03T06:53:01;13.32;;;3.05;;
46815;SDS011;32787;53.316;8.670;2022-08-03T06:55:27;11.30;;;2.65;;
46815;SDS011;32787;53.316;8.670;2022-08-03T06:57:54;7.70;;;2.97;;
46815;SDS011;32787;53.316;8.670;2022-08-03T07:00:19;8.32;;;2.92;;
46815;SDS011;32787;53.316;8.670;2022-08-03T07:02:46;7.78;;;3.13;;
46815;SDS011;32787;53.316;8.670;2022-08-03T07:05:11;10.40;;;2.70;;
46815;SDS011;32787;53.316;8.670;2022-08-03T07:07:37;11.27;;;2.83;;
46815;SDS011;32787;53.316;8.670;2022-08-03T07:10:04;7.80;;;2.78;;
46815;SDS011;32787;53.316;8.670;2022-08-03T07:12:31;8.02;;;2.72;;
46815;SDS011;32787;53.316;8.670;2022-08-03T07:14:58;7.95;;;2.67;;
46815;SDS011;32787;53.316;8.670;2022-08-03T07:17:25;12.50;;;3.00;;
46815;SDS011;32787;53.316;8.670;2022-08-03T07:19:50;10.10;;;2.65;;
46815;SDS011;32787;53.316;8.670;2022-08-03T07:22:16;11.70;;;2.75;;
46815;SDS011;32787;53.316;8.670;2022-08-03T07:24:42;9.48;;;2.70;;
46815;SDS011;32787;53.316;8.670;2022-08-03T07:27:08;9.00;;;2.90;;
46815;SDS011;32787;53.316;8.670;2022-08-03T07:29:34;9.73;;;2.83;;
46815;SDS011;32787;53.316;8.670;2022-08-03T07:32:00;11.20;;;2.72;;
46815;SDS011;32787;53.316;8.670;2022-08-03T07:34:26;10.07;;;2.83;;
46815;SDS011;32787;53.316;8.670;2022-08-03T07:36:52;6.40;;;2.15;;
46815;SDS011;32787;53.316;8.670;2022-08-03T07:39:18;8.80;;;2.72;;
46815;SDS011;32787;53.316;8.670;2022-08-03T07:41:44;9.65;;;2.83;;
46815;SDS011;32787;53.316;8.670;2022-08-03T07:44:10;6.55;;;2.60;;
46815;SDS011;32787;53.316;8.670;2022-08-03T07:46:36;10.15;;;2.85;;
46815;SDS011;32787;53.316;8.670;2022-08-03T07:49:01;11.77;;;3.58;;
46815;SDS011;32787;53.316;8.670;2022-08-03T07:51:27;9.63;;;3.05;;
46815;SDS011;32787;53.316;8.670;2022-08-03T07:53:53;8.75;;;3.30;;
46815;SDS011;32787;53.316;8.670;2022-08-03T07:56:21;9.65;;;3.33;;
46815;SDS011;32787;53.316;8.670;2022-08-03T07:58:48;8.93;;;2.47;;
46815;SDS011;32787;53.316;8.670;2022-08-03T08:01:15;11.07;;;2.65;;
46815;SDS011;32787;53.316;8.670;2022-08-03T08:03:41;12.70;;;3.60;;
46815;SDS011;32787;53.316;8.670;2022-08-03T08:06:06;9.27;;;3.03;;
46815;SDS011;32787;53.316;8.670;2022-08-03T08:08:32;12.00;;;3.13;;
46815;SDS011;32787;53.316;8.670;2022-08-03T08:10:57;12.13;;;3.30;;
46815;SDS011;32787;53.316;8.670;2022-08-03T08:13:23;11.18;;;2.75;;
46815;SDS011;32787;53.316;8.670;2022-08-03T08:15:49;9.68;;;3.22;;
46815;SDS011;32787;53.316;8.670;2022-08-03T08:18:14;8.73;;;3.33;;
46815;SDS011;32787;53.316;8.670;2022-08-03T08:20:40;8.48;;;3.53;;
46815;SDS011;32787;53.316;8.670;2022-08-03T08:23:06;11.70;;;3.65;;
46815;SDS011;32787;53.316;8.670;2022-08-03T08:25:33;9.63;;;3.03;;
46815;SDS011;32787;53.316;8.670;2022-08-03T08:27:58;8.15;;;3.03;;
46815;SDS011;32787;53.316;8.670;2022-08-03T08:32:54;9.82;;;3.78;;
46815;SDS011;32787;53.316;8.670;2022-08-03T08:35:20;10.38;;;3.33;;
46815;SDS011;32787;53.316;8.670;2022-08-03T08:37:45;10.18;;;3.10;;
46815;SDS011;32787;53.316;8.670;2022-08-03T08:40:11;9.38;;;3.22;;
46815;SDS011;32787;53.316;8.670;2022-08-03T08:42:38;9.82;;;2.78;;
46815;SDS011;32787;53.316;8.670;2022-08-03T08:45:05;8.77;;;2.58;;
46815;SDS011;32787;53.316;8.670;2022-08-03T08:47:33;12.30;;;2.60;;
46815;SDS011;32787;53.316;8.670;2022-08-03T08:50:02;10.27;;;2.90;;
46815;SDS011;32787;53.316;8.670;2022-08-03T08:52:29;10.10;;;2.53;;
46815;SDS011;32787;53.316;8.670;2022-08-03T08:54:56;11.02;;;2.58;;
46815;SDS011;32787;53.316;8.670;2022-08-03T08:57:30;8.82;;;2.33;;
46815;SDS011;32787;53.316;8.670;2022-08-03T08:59:59;9.00;;;2.70;;
46815;SDS011;32787;53.316;8.670;2022-08-03T09:02:28;9.48;;;2.63;;
46815;SDS011;32787;53.316;8.670;2022-08-03T09:04:54;8.70;;;2.80;;
46815;SDS011;32787;53.316;8.670;2022-08-03T09:07:21;10.40;;;2.55;;
46815;SDS011;32787;53.316;8.670;2022-08-03T09:09:47;7.85;;;2.00;;
46815;SDS011;32787;53.316;8.670;2022-08-03T09:12:13;8.73;;;2.17;;
46815;SDS011;32787;53.316;8.670;2022-08-03T09:14:38;8.60;;;2.50;;
46815;SDS011;32787;53.316;8.670;2022-08-03T09:17:04;8.80;;;2.38;;
46815;SDS011;32787;53.316;8.670;2022-08-03T09:19:31;12.43;;;2.97;;
46815;SDS011;32787;53.316;8.670;2022-08-03T09:22:14;7.93;;;2.30;;
46815;SDS011;32787;53.316;8.670;2022-08-03T09:24:54;10.23;;;2.85;;
46815;SDS011;32787;53.316;8.670;2022-08-03T09:27:24;11.55;;;2.67;;
46815;SDS011;32787;53.316;8.670;2022-08-03T09:29:51;6.93;;;2.53;;
46815;SDS011;32787;53.316;8.670;2022-08-03T09:32:19;12.45;;;2.70;;
46815;SDS011;32787;53.316;8.670;2022-08-03T09:34:46;7.85;;;2.50;;
46815;SDS011;32787;53.316;8.670;2022-08-03T09:37:14;12.32;;;2.92;;
46815;SDS011;32787;53.316;8.670;2022-08-03T09:39:41;12.07;;;2.97;;
46815;SDS011;32787;53.316;8.670;2022-08-03T09:44:40;10.20;;;2.70;;
46815;SDS011;32787;53.316;8.670;2022-08-03T09:47:07;11.18;;;3.55;;
46815;SDS011;32787;53.316;8.670;2022-08-03T09:49:34;8.80;;;2.90;;
46815;SDS011;32787;53.316;8.670;2022-08-03T09:52:01;11.05;;;3.20;;
46815;SDS011;32787;53.316;8.670;2022-08-03T09:54:40;8.07;;;2.38;;
46815;SDS011;32787;53.316;8.670;2022-08-03T09:57:06;8.07;;;3.03;;
46815;SDS011;32787;53.316;8.670;2022-08-03T09:59:32;8.25;;;2.92;;
46815;SDS011;32787;53.316;8.670;2022-08-03T10:01:58;7.38;;;2.85;;
46815;SDS011;32787;53.316;8.670;2022-08-03T10:04:25;9.80;;;3.03;;
46815;SDS011;32787;53.316;8.670;2022-08-03T10:07:02;10.88;;;2.78;;
46815;SDS011;32787;53.316;8.670;2022-08-03T10:09:33;8.95;;;2.92;;
46815;SDS011;32787;53.316;8.670;2022-08-03T10:12:05;7.38;;;2.55;;
46815;SDS011;32787;53.316;8.670;2022-08-03T10:14:39;8.07;;;2.75;;
46815;SDS011;32787;53.316;8.670;2022-08-03T10:17:06;8.82;;;3.15;;
46815;SDS011;32787;53.316;8.670;2022-08-03T10:19:32;8.55;;;3.03;;
46815;SDS011;32787;53.316;8.670;2022-08-03T10:22:00;8.63;;;3.38;;
46815;SDS011;32787;53.316;8.670;2022-08-03T10:27:19;8.27;;;2.58;;
46815;SDS011;32787;53.316;8.670;2022-08-03T10:29:49;9.98;;;2.97;;
46815;SDS011;32787;53.316;8.670;2022-08-03T10:32:20;9.75;;;2.65;;
46815;SDS011;32787;53.316;8.670;2022-08-03T10:34:51;6.20;;;2.28;;
46815;SDS011;32787;53.316;8.670;2022-08-03T10:37:23;9.18;;;2.42;;
46815;SDS011;32787;53.316;8.670;2022-08-03T10:39:51;6.53;;;2.43;;
46815;SDS011;32787;53.316;8.670;2022-08-03T10:42:22;12.43;;;2.78;;
46815;SDS011;32787;53.316;8.670;2022-08-03T10:44:50;10.70;;;2.42;;
46815;SDS011;32787;53.316;8.670;2022-08-03T10:47:27;7.57;;;2.38;;
46815;SDS011;32787;53.316;8.670;2022-08-03T10:49:54;8.38;;;2.30;;
46815;SDS011;32787;53.316;8.670;2022-08-03T10:52:20;6.88;;;2.08;;
46815;SDS011;32787;53.316;8.670;2022-08-03T10:54:45;8.32;;;1.90;;
46815;SDS011;32787;53.316;8.670;2022-08-03T11:00:11;10.25;;;2.72;;
46815;SDS011;32787;53.316;8.670;2022-08-03T11:05:27;9.75;;;2.30;;
46815;SDS011;32787;53.316;8.670;2022-08-03T11:08:37;7.38;;;1.80;;
46815;SDS011;32787;53.316;8.670;2022-08-03T11:11:23;6.85;;;2.20;;
46815;SDS011;32787;53.316;8.670;2022-08-03T11:16:27;7.57;;;2.40;;
46815;SDS011;32787;53.316;8.670;2022-08-03T11:18:58;7.65;;;2.50;;
46815;SDS011;32787;53.316;8.670;2022-08-03T11:45:57;12.23;;;2.10;;
46815;SDS011;32787;53.316;8.670;2022-08-03T11:51:06;7.10;;;1.65;;
46815;SDS011;32787;53.316;8.670;2022-08-03T11:53:42;9.15;;;2.05;;
46815;SDS011;32787;53.316;8.670;2022-08-03T11:56:08;10.55;;;2.30;;
46815;SDS011;32787;53.316;8.670;2022-08-03T11:58:34;9.95;;;2.40;;
46815;SDS011;32787;53.316;8.670;2022-08-03T12:01:03;6.78;;;1.85;;
46815;SDS011;32787;53.316;8.670;2022-08-03T12:03:33;8.25;;;2.40;;
46815;SDS011;32787;53.316;8.670;2022-08-03T12:05:59;10.05;;;2.42;;
46815;SDS011;32787;53.316;8.670;2022-08-03T12:10:56;8.32;;;2.58;;
46815;SDS011;32787;53.316;8.670;2022-08-03T12:13:22;13.00;;;2.40;;
46815;SDS011;32787;53.316;8.670;2022-08-03T12:18:18;9.82;;;2.33;;
46815;SDS011;32787;53.316;8.670;2022-08-03T12:20:46;11.98;;;2.78;;
46815;SDS011;32787;53.316;8.670;2022-08-03T12:23:13;7.82;;;1.95;;
46815;SDS011;32787;53.316;8.670;2022-08-03T12:25:40;10.07;;;2.10;;
46815;SDS011;32787;53.316;8.670;2022-08-03T12:30:40;8.27;;;2.08;;
46815;SDS011;32787;53.316;8.670;2022-08-03T12:33:23;14.05;;;2.10;;
46815;SDS011;32787;53.316;8.670;2022-08-03T12:36:11;7.15;;;1.77;;
46815;SDS011;32787;53.316;8.670;2022-08-03T12:38:36;8.90;;;1.92;;
46815;SDS011;32787;53.316;8.670;2022-08-03T12:43:32;8.95;;;2.00;;
46815;SDS011;32787;53.316;8.670;2022-08-03T12:48:35;9.35;;;1.90;;
46815;SDS011;32787;53.316;8.670;2022-08-03T12:51:10;8.98;;;1.80;;
46815;SDS011;32787;53.316;8.670;2022-08-03T12:53:35;9.98;;;1.83;;
46815;SDS011;32787;53.316;8.670;2022-08-03T12:56:02;9.98;;;2.15;;
46815;SDS011;32787;53.316;8.670;2022-08-03T12:58:32;9.30;;;1.92;;
46815;SDS011;32787;53.316;8.670;2022-08-03T13:00:59;9.32;;;1.80;;
46815;SDS011;32787;53.316;8.670;2022-08-03T13:03:26;15.95;;;1.98;;
46815;SDS011;32787;53.316;8.670;2022-08-03T13:05:52;8.60;;;2.00;;
46815;SDS011;32787;53.316;8.670;2022-08-03T13:08:18;11.73;;;2.05;;
46815;SDS011;32787;53.316;8.670;2022-08-03T13:10:45;9.90;;;1.83;;
46815;SDS011;32787;53.316;8.670;2022-08-03T13:13:11;8.73;;;1.50;;
46815;SDS011;32787;53.316;8.670;2022-08-03T13:15:37;10.27;;;2.08;;
46815;SDS011;32787;53.316;8.670;2022-08-03T13:18:03;9.43;;;1.98;;
46815;SDS011;32787;53.316;8.670;2022-08-03T13:20:28;8.60;;;1.85;;
46815;SDS011;32787;53.316;8.670;2022-08-03T13:22:54;9.55;;;2.25;;
46815;SDS011;32787;53.316;8.670;2022-08-03T13:25:20;10.25;;;1.65;;
46815;SDS011;32787;53.316;8.670;2022-08-03T13:27:46;8.05;;;1.75;;
46815;SDS011;32787;53.316;8.670;2022-08-03T13:30:13;6.65;;;1.60;;
46815;SDS011;32787;53.316;8.670;2022-08-03T13:32:39;26.90;;;2.00;;
46815;SDS011;32787;53.316;8.670;2022-08-03T13:35:06;10.85;;;1.60;;
46815;SDS011;32787;53.316;8.670;2022-08-03T13:37:33;7.75;;;1.70;;
46815;SDS011;32787;53.316;8.670;2022-08-03T13:39:59;7.25;;;1.85;;
46815;SDS011;32787;53.316;8.670;2022-08-03T13:42:27;10.52;;;1.98;;
46815;SDS011;32787;53.316;8.670;2022-08-03T13:44:54;7.55;;;1.98;;
46815;SDS011;32787;53.316;8.670;2022-08-03T13:47:20;7.97;;;1.90;;
46815;SDS011;32787;53.316;8.670;2022-08-03T13:49:45;8.60;;;1.85;;
46815;SDS011;32787;53.316;8.670;2022-08-03T13:52:11;8.50;;;1.70;;
46815;SDS011;32787;53.316;8.670;2022-08-03T13:54:36;10.65;;;2.17;;
46815;SDS011;32787;53.316;8.670;2022-08-03T13:57:02;9.02;;;2.00;;
46815;SDS011;32787;53.316;8.670;2022-08-03T13:59:28;7.47;;;1.70;;
46815;SDS011;32787;53.316;8.670;2022-08-03T14:01:53;11.30;;;2.13;;
46815;SDS011;32787;53.316;8.670;2022-08-03T14:04:19;10.10;;;2.05;;
46815;SDS011;32787;53.316;8.670;2022-08-03T14:06:45;8.85;;;1.83;;
46815;SDS011;32787;53.316;8.670;2022-08-03T14:09:11;11.90;;;1.70;;
46815;SDS011;32787;53.316;8.670;2022-08-03T14:11:38;11.85;;;2.08;;
46815;SDS011;32787;53.316;8.670;2022-08-03T14:14:04;9.27;;;1.80;;
46815;SDS011;32787;53.316;8.670;2022-08-03T14:16:29;10.50;;;1.83;;
46815;SDS011;32787;53.316;8.670;2022-08-03T14:18:55;8.95;;;2.30;;
46815;SDS011;32787;53.316;8.670;2022-08-03T14:21:21;14.48;;;1.95;;
46815;SDS011;32787;53.316;8.670;2022-08-03T14:23:46;10.27;;;2.17;;
46815;SDS011;32787;53.316;8.670;2022-08-03T14:26:12;9.65;;;1.85;;
46815;SDS011;32787;53.316;8.670;2022-08-03T14:28:38;10.32;;;2.20;;
46815;SDS011;32787;53.316;8.670;2022-08-03T14:31:04;12.45;;;2.42;;
46815;SDS011;32787;53.316;8.670;2022-08-03T14:33:30;10.02;;;2.22;;
46815;SDS011;32787;53.316;8.670;2022-08-03T14:35:55;6.90;;;1.73;;
46815;SDS011;32787;53.316;8.670;2022-08-03T14:38:21;10.55;;;1.90;;
46815;SDS011;32787;53.316;8.670;2022-08-03T14:40:47;9.60;;;2.10;;
46815;SDS011;32787;53.316;8.670;2022-08-03T14:43:14;10.48;;;2.00;;
46815;SDS011;32787;53.316;8.670;2022-08-03T14:45:42;15.10;;;2.30;;
46815;SDS011;32787;53.316;8.670;2022-08-03T14:48:07;12.02;;;1.90;;
46815;SDS011;32787;53.316;8.670;2022-08-03T14:50:33;7.88;;;1.95;;
46815;SDS011;32787;53.316;8.670;2022-08-03T14:52:59;8.48;;;1.75;;
46815;SDS011;32787;53.316;8.670;2022-08-03T14:55:25;10.88;;;1.95;;
46815;SDS011;32787;53.316;8.670;2022-08-03T14:57:50;10.50;;;2.05;;
46815;SDS011;32787;53.316;8.670;2022-08-03T15:00:16;12.80;;;2.03;;
46815;SDS011;32787;53.316;8.670;2022-08-03T15:02:41;9.98;;;1.80;;
46815;SDS011;32787;53.316;8.670;2022-08-03T15:05:07;11.32;;;2.10;;
46815;SDS011;32787;53.316;8.670;2022-08-03T15:07:34;10.60;;;2.00;;
46815;SDS011;32787;53.316;8.670;2022-08-03T15:10:00;11.05;;;2.40;;
46815;SDS011;32787;53.316;8.670;2022-08-03T15:12:26;9.52;;;2.42;;
46815;SDS011;32787;53.316;8.670;2022-08-03T15:14:51;11.15;;;2.20;;
46815;SDS011;32787;53.316;8.670;2022-08-03T15:17:17;12.40;;;1.88;;
46815;SDS011;32787;53.316;8.670;2022-08-03T15:19:44;12.18;;;2.45;;
46815;SDS011;32787;53.316;8.670;2022-08-03T15:22:09;9.23;;;2.10;;
46815;SDS011;32787;53.316;8.670;2022-08-03T15:24:35;12.23;;;2.20;;
46815;SDS011;32787;53.316;8.670;2022-08-03T15:27:01;8.82;;;2.15;;
46815;SDS011;32787;53.316;8.670;2022-08-03T15:29:26;11.60;;;1.98;;
46815;SDS011;32787;53.316;8.670;2022-08-03T15:31:52;11.23;;;2.17;;
46815;SDS011;32787;53.316;8.670;2022-08-03T15:34:17;9.57;;;1.92;;
46815;SDS011;32787;53.316;8.670;2022-08-03T15:36:43;11.93;;;2.40;;
46815;SDS011;32787;53.316;8.670;2022-08-03T15:39:09;11.23;;;2.22;;
46815;SDS011;32787;53.316;8.670;2022-08-03T15:41:34;14.75;;;2.10;;
46815;SDS011;32787;53.316;8.670;2022-08-03T15:44:00;10.43;;;2.35;;
46815;SDS011;32787;53.316;8.670;2022-08-03T15:46:26;14.48;;;2.38;;
46815;SDS011;32787;53.316;8.670;2022-08-03T15:48:52;12.88;;;2.42;;
46815;SDS011;32787;53.316;8.670;2022-08-03T15:51:17;9.00;;;1.90;;
46815;SDS011;32787;53.316;8.670;2022-08-03T15:53:43;14.32;;;2.80;;
46815;SDS011;32787;53.316;8.670;2022-08-03T15:56:09;9.68;;;2.53;;
46815;SDS011;32787;53.316;8.670;2022-08-03T15:58:36;12.65;;;2.25;;